PWSweather.com
Personal Weather Stations
Station Observations
KCAFRAZI5
West End Drive Area, Frazier Park, CA 93225

West End Drive AreaFrazier Park, CA 93225

Lat: 34.82109, Lon: -118.96053

Elevation: 4940

Station Type: Davis Vantage Pro 2

http://www.fpweather.com

High Low Average
Temperature 76.3°F24.6°C 52.2°F11.2°C 64.3°F17.9°C
Dew Point 39.4°F4.1°C 13.1°F-10.5°C 30.3°F-0.9°C
Winds 9.0 mph 14.5 kmh Calm Calm 4.0 mph S6.4 kmh S
Wind Gusts 12.0 mph19.3 kmh -- 7.0 mph11.3 kmh
Humidity 42% 16% 28%
Pressure 29.74 in1007.1 mb 29.66 in1004.4 mb -
Precipitation 0.00 in0.0 mm - -
Hour Temp Dew Point Humidity Winds Wind Gusts Pressure Precip Precip Rate Daily Precip Total
12:00 AM 58.6°F14.8°C -5.3°F-20.7°C 7% 2.0 mph SSE3.2 kmh SSE 3.0 mph4.8 kmh 29.71 in1006.1 mb 0.00 in0.0 mm 0.00 in0.0 mm 0.00 in0.0 mm
12:15 AM 59.1°F15.1°C 0.3°F-17.6°C 9% 5.0 mph S8.0 kmh S 8.0 mph12.9 kmh 29.71 in1006.1 mb 0.00 in0.0 mm 0.00 in0.0 mm 0.00 in0.0 mm
12:30 AM 59.4°F15.2°C 4.9°F-15.1°C 11% 3.0 mph SSE4.8 kmh SSE 8.0 mph12.9 kmh 29.71 in1006.1 mb 0.00 in0.0 mm 0.00 in0.0 mm 0.00 in0.0 mm
12:45 AM 58.6°F14.8°C 7.9°F-13.4°C 13% 7.0 mph SSE11.3 kmh SSE 12.0 mph19.3 kmh 29.71 in1006.1 mb 0.00 in0.0 mm 0.00 in0.0 mm 0.00 in0.0 mm
01:00 AM 59.2°F15.1°C 13.1°F-10.5°C 16% 4.0 mph SSE6.4 kmh SSE 10.0 mph16.1 kmh 29.71 in1006.1 mb 0.00 in0.0 mm 0.00 in0.0 mm 0.00 in0.0 mm
01:15 AM 59.1°F15.1°C 16.9°F-8.4°C 19% 5.0 mph S8.0 kmh S 7.0 mph11.3 kmh 29.71 in1006.1 mb 0.00 in0.0 mm 0.00 in0.0 mm 0.00 in0.0 mm
01:30 AM 56.1°F13.4°C 13.2°F-10.4°C 18% 5.0 mph SE8.0 kmh SE 9.0 mph14.5 kmh 29.69 in1005.4 mb 0.00 in0.0 mm 0.00 in0.0 mm 0.00 in0.0 mm
01:45 AM 55.5°F13.1°C 15.1°F-9.4°C 20% 3.0 mph SSE4.8 kmh SSE 6.0 mph9.7 kmh 29.71 in1006.1 mb 0.00 in0.0 mm 0.00 in0.0 mm 0.00 in0.0 mm
02:00 AM 55.9°F13.3°C 18.7°F-7.4°C 23% 7.0 mph S11.3 kmh S 9.0 mph14.5 kmh 29.70 in1005.8 mb 0.00 in0.0 mm 0.00 in0.0 mm 0.00 in0.0 mm
02:15 AM 56.1°F13.4°C 20.8°F-6.2°C 25% 2.0 mph SSE3.2 kmh SSE 6.0 mph9.7 kmh 29.70 in1005.8 mb 0.00 in0.0 mm 0.00 in0.0 mm 0.00 in0.0 mm
02:30 AM 56.5°F13.6°C 21.1°F-6.1°C 25% 5.0 mph SSE8.0 kmh SSE 5.0 mph8.0 kmh 29.70 in1005.8 mb 0.00 in0.0 mm 0.00 in0.0 mm 0.00 in0.0 mm
02:45 AM 55.6°F13.1°C 22.2°F-5.4°C 27% 3.0 mph SSE4.8 kmh SSE 7.0 mph11.3 kmh 29.70 in1005.8 mb 0.00 in0.0 mm 0.00 in0.0 mm 0.00 in0.0 mm
03:00 AM 55.6°F13.1°C 22.2°F-5.4°C 27% 5.0 mph S8.0 kmh S 10.0 mph16.1 kmh 29.71 in1006.1 mb 0.00 in0.0 mm 0.00 in0.0 mm 0.00 in0.0 mm
03:15 AM 54.7°F12.6°C 22.3°F-5.4°C 28% 3.0 mph S4.8 kmh S 4.0 mph6.4 kmh 29.71 in1006.1 mb 0.00 in0.0 mm 0.00 in0.0 mm 0.00 in0.0 mm
03:30 AM 53.7°F12.1°C 22.2°F-5.4°C 29% Calm Calm 1.0 mph1.6 kmh 29.70 in1005.8 mb 0.00 in0.0 mm 0.00 in0.0 mm 0.00 in0.0 mm
03:45 AM 52.4°F11.3°C 22.7°F-5.2°C 31% 5.0 mph S8.0 kmh S 6.0 mph9.7 kmh 29.70 in1005.8 mb 0.00 in0.0 mm 0.00 in0.0 mm 0.00 in0.0 mm
04:00 AM 52.4°F11.3°C 23.4°F-4.8°C 32% 4.0 mph S6.4 kmh S 9.0 mph14.5 kmh 29.71 in1006.1 mb 0.00 in0.0 mm 0.00 in0.0 mm 0.00 in0.0 mm
04:15 AM 52.2°F11.2°C 24.0°F-4.4°C 33% 9.0 mph SSE14.5 kmh SSE 11.0 mph17.7 kmh 29.71 in1006.1 mb 0.00 in0.0 mm 0.00 in0.0 mm 0.00 in0.0 mm
04:30 AM 52.9°F11.6°C 24.6°F-4.1°C 33% 3.0 mph SSE4.8 kmh SSE 5.0 mph8.0 kmh 29.71 in1006.1 mb 0.00 in0.0 mm 0.00 in0.0 mm 0.00 in0.0 mm
04:45 AM 52.8°F11.6°C 25.9°F-3.4°C 35% 7.0 mph S11.3 kmh S 7.0 mph11.3 kmh 29.70 in1005.8 mb 0.00 in0.0 mm 0.00 in0.0 mm 0.00 in0.0 mm
05:00 AM 52.5°F11.4°C 25.7°F-3.5°C 35% 1.0 mph S1.6 kmh S 1.0 mph1.6 kmh 29.70 in1005.8 mb 0.00 in0.0 mm 0.00 in0.0 mm 0.00 in0.0 mm
05:15 AM 54.7°F12.6°C 27.6°F-2.4°C 35% 4.0 mph S6.4 kmh S 7.0 mph11.3 kmh 29.70 in1005.8 mb 0.00 in0.0 mm 0.00 in0.0 mm 0.00 in0.0 mm
05:30 AM 56.3°F13.5°C 28.3°F-2.1°C 34% 2.0 mph S3.2 kmh S 5.0 mph8.0 kmh 29.70 in1005.8 mb 0.00 in0.0 mm 0.00 in0.0 mm 0.00 in0.0 mm
05:45 AM 55.3°F12.9°C 28.1°F-2.2°C 35% Calm Calm -- 29.71 in1006.1 mb 0.00 in0.0 mm 0.00 in0.0 mm 0.00 in0.0 mm
06:00 AM 53.5°F11.9°C 29.2°F-1.6°C 39% Calm Calm 1.0 mph1.6 kmh 29.72 in1006.4 mb 0.00 in0.0 mm 0.00 in0.0 mm 0.00 in0.0 mm
06:15 AM 52.8°F11.6°C 30.4°F-0.9°C 42% 2.0 mph SSW3.2 kmh SSW 3.0 mph4.8 kmh 29.73 in1006.8 mb 0.00 in0.0 mm 0.00 in0.0 mm 0.00 in0.0 mm
06:30 AM 54.0°F12.2°C 30.2°F-1.0°C 40% Calm Calm -- 29.74 in1007.1 mb 0.00 in0.0 mm 0.00 in0.0 mm 0.00 in0.0 mm
06:45 AM 56.6°F13.7°C 30.7°F-0.7°C 37% 2.0 mph S3.2 kmh S 2.0 mph3.2 kmh 29.73 in1006.8 mb 0.00 in0.0 mm 0.00 in0.0 mm 0.00 in0.0 mm
07:00 AM 58.3°F14.6°C 30.8°F-0.7°C 35% 3.0 mph S4.8 kmh S 3.0 mph4.8 kmh 29.72 in1006.4 mb 0.00 in0.0 mm 0.00 in0.0 mm 0.00 in0.0 mm
07:15 AM 61.4°F16.3°C 31.3°F-0.4°C 32% Calm Calm 3.0 mph4.8 kmh 29.71 in1006.1 mb 0.00 in0.0 mm 0.00 in0.0 mm 0.00 in0.0 mm
07:30 AM 62.0°F16.7°C 32.6°F0.3°C 33% 1.0 mph N1.6 kmh N 2.0 mph3.2 kmh 29.71 in1006.1 mb 0.00 in0.0 mm 0.00 in0.0 mm 0.00 in0.0 mm
07:45 AM 64.3°F17.9°C 33.1°F0.6°C 31% 1.0 mph N1.6 kmh N 3.0 mph4.8 kmh 29.70 in1005.8 mb 0.00 in0.0 mm 0.00 in0.0 mm 0.00 in0.0 mm
08:00 AM 61.4°F16.3°C 34.9°F1.6°C 37% 4.0 mph NW6.4 kmh NW 6.0 mph9.7 kmh 29.69 in1005.4 mb 0.00 in0.0 mm 0.00 in0.0 mm 0.00 in0.0 mm
08:15 AM 63.8°F17.7°C 35.7°F2.1°C 35% 1.0 mph N1.6 kmh N 4.0 mph6.4 kmh 29.70 in1005.8 mb 0.00 in0.0 mm 0.00 in0.0 mm 0.00 in0.0 mm
08:30 AM 64.8°F18.2°C 35.8°F2.1°C 34% 4.0 mph N6.4 kmh N 4.0 mph6.4 kmh 29.70 in1005.8 mb 0.00 in0.0 mm 0.00 in0.0 mm 0.00 in0.0 mm
08:45 AM 66.0°F18.9°C 36.1°F2.3°C 33% 5.0 mph N8.0 kmh N 5.0 mph8.0 kmh 29.69 in1005.4 mb 0.00 in0.0 mm 0.00 in0.0 mm 0.00 in0.0 mm
09:00 AM 66.0°F18.9°C 35.3°F1.8°C 32% 3.0 mph NNW4.8 kmh NNW 7.0 mph11.3 kmh 29.70 in1005.8 mb 0.00 in0.0 mm 0.00 in0.0 mm 0.00 in0.0 mm
09:15 AM 67.0°F19.4°C 34.6°F1.4°C 30% 4.0 mph N6.4 kmh N 5.0 mph8.0 kmh 29.70 in1005.8 mb 0.00 in0.0 mm 0.00 in0.0 mm 0.00 in0.0 mm
09:30 AM 67.5°F19.7°C 33.3°F0.7°C 28% 3.0 mph N4.8 kmh N 6.0 mph9.7 kmh 29.69 in1005.4 mb 0.00 in0.0 mm 0.00 in0.0 mm 0.00 in0.0 mm
09:45 AM 67.5°F19.7°C 32.4°F0.2°C 27% 6.0 mph N9.7 kmh N 6.0 mph9.7 kmh 29.69 in1005.4 mb 0.00 in0.0 mm 0.00 in0.0 mm 0.00 in0.0 mm
10:00 AM 67.9°F19.9°C 33.6°F0.9°C 28% 4.0 mph N6.4 kmh N 8.0 mph12.9 kmh 29.69 in1005.4 mb 0.00 in0.0 mm 0.00 in0.0 mm 0.00 in0.0 mm
10:15 AM 69.5°F20.8°C 34.1°F1.2°C 27% 9.0 mph N14.5 kmh N 9.0 mph14.5 kmh 29.68 in1005.1 mb 0.00 in0.0 mm 0.00 in0.0 mm 0.00 in0.0 mm
10:30 AM 68.7°F20.4°C 33.4°F0.8°C 27% 4.0 mph N6.4 kmh N 10.0 mph16.1 kmh 29.70 in1005.8 mb 0.00 in0.0 mm 0.00 in0.0 mm 0.00 in0.0 mm
10:45 AM 70.2°F21.2°C 33.7°F0.9°C 26% 4.0 mph N6.4 kmh N 9.0 mph14.5 kmh 29.70 in1005.8 mb 0.00 in0.0 mm 0.00 in0.0 mm 0.00 in0.0 mm
11:00 AM 70.5°F21.4°C 32.0°F0.0°C 24% 4.0 mph N6.4 kmh N 7.0 mph11.3 kmh 29.70 in1005.8 mb 0.00 in0.0 mm 0.00 in0.0 mm 0.00 in0.0 mm
11:15 AM 70.5°F21.4°C 31.0°F-0.6°C 23% 4.0 mph NW6.4 kmh NW 7.0 mph11.3 kmh 29.70 in1005.8 mb 0.00 in0.0 mm 0.00 in0.0 mm 0.00 in0.0 mm
11:30 AM 70.7°F21.5°C 31.1°F-0.5°C 23% 2.0 mph N3.2 kmh N 7.0 mph11.3 kmh 29.69 in1005.4 mb 0.00 in0.0 mm 0.00 in0.0 mm 0.00 in0.0 mm
11:45 AM 71.4°F21.9°C 31.7°F-0.2°C 23% 5.0 mph NW8.0 kmh NW 8.0 mph12.9 kmh 29.69 in1005.4 mb 0.00 in0.0 mm 0.00 in0.0 mm 0.00 in0.0 mm
12:00 PM 71.4°F21.9°C 30.6°F-0.8°C 22% 6.0 mph N9.7 kmh N 10.0 mph16.1 kmh 29.69 in1005.4 mb 0.00 in0.0 mm 0.00 in0.0 mm 0.00 in0.0 mm
12:15 PM 72.6°F22.6°C 31.6°F-0.2°C 22% 7.0 mph NE11.3 kmh NE 10.0 mph16.1 kmh 29.69 in1005.4 mb 0.00 in0.0 mm 0.00 in0.0 mm 0.00 in0.0 mm
12:30 PM 71.9°F22.2°C 31.0°F-0.6°C 22% 3.0 mph NE4.8 kmh NE 10.0 mph16.1 kmh 29.70 in1005.8 mb 0.00 in0.0 mm 0.00 in0.0 mm 0.00 in0.0 mm
12:45 PM 73.6°F23.1°C 32.5°F0.3°C 22% 3.0 mph N4.8 kmh N 7.0 mph11.3 kmh 29.68 in1005.1 mb 0.00 in0.0 mm 0.00 in0.0 mm 0.00 in0.0 mm
01:00 PM 73.6°F23.1°C 32.5°F0.3°C 22% 4.0 mph NNE6.4 kmh NNE 9.0 mph14.5 kmh 29.68 in1005.1 mb 0.00 in0.0 mm 0.00 in0.0 mm 0.00 in0.0 mm
01:15 PM 74.2°F23.4°C 33.0°F0.6°C 22% 3.0 mph E4.8 kmh E 9.0 mph14.5 kmh 29.69 in1005.4 mb 0.00 in0.0 mm 0.00 in0.0 mm 0.00 in0.0 mm
01:30 PM 74.5°F23.6°C 32.0°F0.0°C 21% 5.0 mph N8.0 kmh N 7.0 mph11.3 kmh 29.69 in1005.4 mb 0.00 in0.0 mm 0.00 in0.0 mm 0.00 in0.0 mm
01:45 PM 75.0°F23.9°C 32.5°F0.3°C 21% 6.0 mph NNE9.7 kmh NNE 11.0 mph17.7 kmh 29.69 in1005.4 mb 0.00 in0.0 mm 0.00 in0.0 mm 0.00 in0.0 mm
02:00 PM 75.6°F24.2°C 33.0°F0.6°C 21% 5.0 mph 8.0 kmh 10.0 mph16.1 kmh 29.69 in1005.4 mb 0.00 in0.0 mm 0.00 in0.0 mm 0.00 in0.0 mm
02:15 PM 75.4°F24.1°C 32.8°F0.4°C 21% 9.0 mph N14.5 kmh N 10.0 mph16.1 kmh 29.68 in1005.1 mb 0.00 in0.0 mm 0.00 in0.0 mm 0.00 in0.0 mm
02:30 PM 74.9°F23.8°C 32.4°F0.2°C 21% 7.0 mph NNE11.3 kmh NNE 12.0 mph19.3 kmh 29.68 in1005.1 mb 0.00 in0.0 mm 0.00 in0.0 mm 0.00 in0.0 mm
02:45 PM 76.1°F24.5°C 33.4°F0.8°C 21% 6.0 mph N9.7 kmh N 7.0 mph11.3 kmh 29.68 in1005.1 mb 0.00 in0.0 mm 0.00 in0.0 mm 0.00 in0.0 mm
03:00 PM 76.3°F24.6°C 33.5°F0.8°C 21% 9.0 mph NE14.5 kmh NE 11.0 mph17.7 kmh 29.68 in1005.1 mb 0.00 in0.0 mm 0.00 in0.0 mm 0.00 in0.0 mm
03:15 PM 75.6°F24.2°C 33.0°F0.6°C 21% 5.0 mph N8.0 kmh N 9.0 mph14.5 kmh 29.68 in1005.1 mb 0.00 in0.0 mm 0.00 in0.0 mm 0.00 in0.0 mm
03:30 PM 75.7°F24.3°C 34.2°F1.2°C 22% 5.0 mph N8.0 kmh N 7.0 mph11.3 kmh 29.68 in1005.1 mb 0.00 in0.0 mm 0.00 in0.0 mm 0.00 in0.0 mm
03:45 PM 75.6°F24.2°C 34.1°F1.2°C 22% 4.0 mph N6.4 kmh N 8.0 mph12.9 kmh 29.68 in1005.1 mb 0.00 in0.0 mm 0.00 in0.0 mm 0.00 in0.0 mm
04:00 PM 75.4°F24.1°C 34.0°F1.1°C 22% 5.0 mph NNW8.0 kmh NNW 12.0 mph19.3 kmh 29.69 in1005.4 mb 0.00 in0.0 mm 0.00 in0.0 mm 0.00 in0.0 mm
04:15 PM 75.0°F23.9°C 33.6°F0.9°C 22% 3.0 mph NNE4.8 kmh NNE 6.0 mph9.7 kmh 29.69 in1005.4 mb 0.00 in0.0 mm 0.00 in0.0 mm 0.00 in0.0 mm
04:30 PM 75.0°F23.9°C 33.6°F0.9°C 22% 4.0 mph NNW6.4 kmh NNW 9.0 mph14.5 kmh 29.68 in1005.1 mb 0.00 in0.0 mm 0.00 in0.0 mm 0.00 in0.0 mm
04:45 PM 75.2°F24.0°C 34.9°F1.6°C 23% 9.0 mph N14.5 kmh N 9.0 mph14.5 kmh 29.68 in1005.1 mb 0.00 in0.0 mm 0.00 in0.0 mm 0.00 in0.0 mm
05:00 PM 74.7°F23.7°C 34.5°F1.4°C 23% 4.0 mph 6.4 kmh 6.0 mph9.7 kmh 29.68 in1005.1 mb 0.00 in0.0 mm 0.00 in0.0 mm 0.00 in0.0 mm
05:15 PM 73.5°F23.1°C 34.5°F1.4°C 24% 5.0 mph NW8.0 kmh NW 9.0 mph14.5 kmh 29.68 in1005.1 mb 0.00 in0.0 mm 0.00 in0.0 mm 0.00 in0.0 mm
05:30 PM 73.5°F23.1°C 35.6°F2.0°C 25% 4.0 mph 6.4 kmh 8.0 mph12.9 kmh 29.69 in1005.4 mb 0.00 in0.0 mm 0.00 in0.0 mm 0.00 in0.0 mm
05:45 PM 72.4°F22.4°C 35.6°F2.0°C 26% 1.0 mph NW1.6 kmh NW 7.0 mph11.3 kmh 29.69 in1005.4 mb 0.00 in0.0 mm 0.00 in0.0 mm 0.00 in0.0 mm
06:00 PM 72.1°F22.3°C 35.4°F1.9°C 26% 3.0 mph 4.8 kmh 5.0 mph8.0 kmh 29.70 in1005.8 mb 0.00 in0.0 mm 0.00 in0.0 mm 0.00 in0.0 mm
06:15 PM 71.6°F22.0°C 39.4°F4.1°C 31% 2.0 mph N3.2 kmh N 5.0 mph8.0 kmh 29.70 in1005.8 mb 0.00 in0.0 mm 0.00 in0.0 mm 0.00 in0.0 mm
06:30 PM 70.7°F21.5°C 36.0°F2.2°C 28% 5.0 mph N8.0 kmh N 6.0 mph9.7 kmh 29.67 in1004.7 mb 0.00 in0.0 mm 0.00 in0.0 mm 0.00 in0.0 mm
06:45 PM 69.9°F21.1°C 35.3°F1.8°C 28% 3.0 mph NNE4.8 kmh NNE 4.0 mph6.4 kmh 29.67 in1004.7 mb 0.00 in0.0 mm 0.00 in0.0 mm 0.00 in0.0 mm
07:00 PM 68.7°F20.4°C 35.2°F1.8°C 29% 2.0 mph N3.2 kmh N 4.0 mph6.4 kmh 29.68 in1005.1 mb 0.00 in0.0 mm 0.00 in0.0 mm 0.00 in0.0 mm
07:15 PM 67.9°F19.9°C 36.2°F2.3°C 31% 2.0 mph N3.2 kmh N 4.0 mph6.4 kmh 29.68 in1005.1 mb 0.00 in0.0 mm 0.00 in0.0 mm 0.00 in0.0 mm
07:30 PM 66.4°F19.1°C 36.5°F2.5°C 33% 2.0 mph N3.2 kmh N 3.0 mph4.8 kmh 29.67 in1004.7 mb 0.00 in0.0 mm 0.00 in0.0 mm 0.00 in0.0 mm
07:45 PM 65.4°F18.6°C 36.3°F2.4°C 34% Calm Calm -- 29.68 in1005.1 mb 0.00 in0.0 mm 0.00 in0.0 mm 0.00 in0.0 mm
08:00 PM 64.8°F18.2°C 37.2°F2.9°C 36% Calm Calm -- 29.69 in1005.4 mb 0.00 in0.0 mm 0.00 in0.0 mm 0.00 in0.0 mm
08:15 PM 63.0°F17.2°C 34.9°F1.6°C 35% Calm Calm -- 29.69 in1005.4 mb 0.00 in0.0 mm 0.00 in0.0 mm 0.00 in0.0 mm
08:30 PM 61.7°F16.5°C 34.5°F1.4°C 36% Calm Calm 2.0 mph3.2 kmh 29.67 in1004.7 mb 0.00 in0.0 mm 0.00 in0.0 mm 0.00 in0.0 mm
08:45 PM 60.6°F15.9°C 33.5°F0.8°C 36% Calm Calm -- 29.68 in1005.1 mb 0.00 in0.0 mm 0.00 in0.0 mm 0.00 in0.0 mm
09:00 PM 63.1°F17.3°C 32.0°F0.0°C 31% 4.0 mph SSE6.4 kmh SSE 6.0 mph9.7 kmh 29.68 in1005.1 mb 0.00 in0.0 mm 0.00 in0.0 mm 0.00 in0.0 mm
09:15 PM 63.9°F17.7°C 32.7°F0.4°C 31% 6.0 mph SSE9.7 kmh SSE 9.0 mph14.5 kmh 29.67 in1004.7 mb 0.00 in0.0 mm 0.00 in0.0 mm 0.00 in0.0 mm
09:30 PM 63.1°F17.3°C 32.0°F0.0°C 31% 8.0 mph S12.9 kmh S 10.0 mph16.1 kmh 29.66 in1004.4 mb 0.00 in0.0 mm 0.00 in0.0 mm 0.00 in0.0 mm
09:45 PM 62.2°F16.8°C 31.2°F-0.4°C 31% 6.0 mph SSW9.7 kmh SSW 10.0 mph16.1 kmh 29.66 in1004.4 mb 0.00 in0.0 mm 0.00 in0.0 mm 0.00 in0.0 mm
10:00 PM 61.4°F16.3°C 30.5°F-0.8°C 31% 7.0 mph SE11.3 kmh SE 10.0 mph16.1 kmh 29.68 in1005.1 mb 0.00 in0.0 mm 0.00 in0.0 mm 0.00 in0.0 mm
10:15 PM 60.8°F16.0°C 30.0°F-1.1°C 31% 6.0 mph S9.7 kmh S 9.0 mph14.5 kmh 29.68 in1005.1 mb 0.00 in0.0 mm 0.00 in0.0 mm 0.00 in0.0 mm
10:30 PM 60.1°F15.6°C 28.6°F-1.9°C 30% 7.0 mph SE11.3 kmh SE 12.0 mph19.3 kmh 29.68 in1005.1 mb 0.00 in0.0 mm 0.00 in0.0 mm 0.00 in0.0 mm
10:45 PM 59.5°F15.3°C 28.1°F-2.2°C 30% 7.0 mph SSE11.3 kmh SSE 7.0 mph11.3 kmh 29.68 in1005.1 mb 0.00 in0.0 mm 0.00 in0.0 mm 0.00 in0.0 mm
11:00 PM 58.2°F14.6°C 27.7°F-2.4°C 31% 3.0 mph S4.8 kmh S 7.0 mph11.3 kmh 29.69 in1005.4 mb 0.00 in0.0 mm 0.00 in0.0 mm 0.00 in0.0 mm
11:15 PM 57.4°F14.1°C 27.0°F-2.8°C 31% 5.0 mph SSE8.0 kmh SSE 7.0 mph11.3 kmh 29.69 in1005.4 mb 0.00 in0.0 mm 0.00 in0.0 mm 0.00 in0.0 mm
11:30 PM 56.3°F13.5°C 26.8°F-2.9°C 32% 9.0 mph S14.5 kmh S 10.0 mph16.1 kmh 29.69 in1005.4 mb 0.00 in0.0 mm 0.00 in0.0 mm 0.00 in0.0 mm
11:45 PM 56.1°F13.4°C 26.7°F-2.9°C 32% 5.0 mph SSE8.0 kmh SSE 8.0 mph12.9 kmh 29.69 in1005.4 mb 0.00 in0.0 mm 0.00 in0.0 mm 0.00 in0.0 mm